KLRD

Laredo International Airport

Laredo, Texas, USA
METAR KLRD 151856Z 00000KT 10SM CLR 28/13 A2975 RMK AO2 SLP083 T02830128
Observed Flight Rules
Feb-15 @ 18:56 UTC (11 minutes ago) Visual Flight Rules
Visibility Clouds
10 miles
  • Clear skies
Temperatures Readings
Current 28°C / 82°F
Dewpoint 13°C / 55°F
Humidity 40%
Altimeter 29.75" Hg
Pressure 1008.3 hPa
Elevation 155
METAR KLRD 151856Z 00000KT 10SM CLR 28/13 A2975 RMK AO2 SLP083 T02830128
Observed Flight Rules
Feb-15 @ 18:56 UTC
(11 minutes ago)
VFR
Clouds
  • Clear skies
Temperature Dewpoint
28°C / 82°F 13°C / 55°F
Humidity Altimeter Pressure
40% 29.75" Hg 1008.3 hPa